Latest Coastal Weather Observations for Cape Otway

IDT60701

Issued at 7:41 am EST Saturday 30 April 2016 (issued every 10 minutes, with the page automatically refreshed every 10 minutes)

About coastal observations | Map of coastal stations | Coastal observations for TAS | Marine services | Other Formats
Station Details ID: 090015 Name: CAPE OTWAY LIGHTHOUSE Lat: -38.86 Lon: 143.51 Height: 82.0 m
Data from the previous 72 hours. | See also: Recent months at Cape Otway
Date/Time
EST
Temp

°C
Wind Pressure Rain
since 9am
mm
Weather Cloud Vis
km
Sea
Height
m
Swell
Dir
 
Speed
knots
Gust
knots
hPa Trend Height
m
Period
s
Dir
30/07:30am 16.4 N 11 16 1011.7 - 4.4 - - - - - - -
30/07:00am 16.5 N 10 17 1011.5 - 4.4 - - - - - - -
30/06:30am 16.5 N 11 16 1011.3 - 4.4 - - - - - - -
30/06:00am 16.6 N 12 21 1011.1 - 4.4 - - - - - - -
30/05:30am 16.6 N 13 19 1011.2 - 4.4 - - - - - - -
30/05:00am 16.7 N 12 18 1011.2 - 4.4 - - - - - - -
30/04:30am 16.6 N 13 19 1011.2 - 4.4 - - - - - - -
30/04:00am 16.4 N 14 19 1011.1 - 4.4 - - - - - - -
30/03:30am 16.1 N 11 17 1011.2 - 4.4 - - - - - - -
30/03:00am 16.0 N 12 21 1011.4 - 4.4 - - - - - - -
30/02:30am 16.1 N 11 15 1011.7 - 4.4 - - - - - - -
30/02:00am 16.0 N 11 15 1011.8 - 4.4 - - - - - - -
30/01:30am 15.8 N 12 17 1011.8 - 4.4 - - - - - - -
30/01:00am 15.9 N 12 17 1012.0 - 4.4 - - - - - - -
30/12:30am 15.7 N 9 13 1012.2 - 4.4 - - - - - - -
30/12:00am 15.6 NNW 9 13 1012.3 - 4.4 - - - - - - -
 
Date/Time
EST
Temp

°C
Wind Pressure Rain
since 9am
mm
Weather Cloud Vis
km
Sea
Height
m
Swell
Dir
 
Speed
knots
Gust
knots
hPa Trend Height
m
Period
s
Dir
29/11:30pm 15.6 NNW 10 13 1012.8 - 4.4 - - - - - - -
29/11:00pm 15.5 NNW 9 12 1012.9 - 4.2 - - - - - - -
29/10:30pm 15.7 N 11 16 1013.1 - 4.2 - - - - - - -
29/10:00pm 15.8 N 12 18 1012.8 - 4.2 - - - - - - -
29/09:30pm 15.6 N 12 16 1012.7 - 4.2 - - - - - - -
29/09:00pm 15.7 N 12 17 1012.5 - 4.2 - - - - - - -
29/08:30pm 15.8 N 11 17 1012.4 - 4.2 - - - - - - -
29/08:00pm 15.8 N 11 15 1012.3 - 4.2 - - - - - - -
29/07:30pm 15.8 N 9 15 1012.4 - 4.2 - - - - - - -
29/07:00pm 15.7 N 8 12 1012.5 - 4.2 - - - - - - -
29/06:30pm 15.6 NNW 6 10 1012.4 - 4.2 - - - - - - -
29/06:00pm 15.8 NNW 10 14 1011.9 - 4.2 - - - - - - -
29/05:30pm 15.7 NNW 10 17 1011.8 - 4.2 - - - - - - -
29/05:00pm 15.7 NW 9 14 1011.6 - 4.2 - - - - - - -
29/04:30pm 15.6 NW 10 16 1011.5 - 4.2 - - - - - - -
29/04:00pm 15.3 NNW 12 22 1011.4 - 4.2 - - - - - - -
29/03:30pm 15.6 NNW 9 14 1011.2 - 3.8 - - - - - - -
29/03:00pm 15.8 NNW 10 15 1011.0 - 3.4 - - - - - - -
29/02:30pm 16.4 W 7 13 1011.2 - 1.0 - - - - - - -
29/02:00pm 16.7 N 8 14 1010.8 - 0.4 - - - - - - -
29/01:30pm 16.9 N 11 17 1010.8 - 0.2 - - - - - - -
29/01:00pm 17.0 N 11 19 1011.1 - 0.2 - - - - - - -
29/12:30pm 16.9 N 9 12 1011.6 - 0.2 - - - - - - -
29/12:00pm 16.9 N 11 17 1012.0 - 0.0 - - - - - - -
29/11:30am 16.9 NNW 9 15 1012.6 - 0.0 - - - - - - -
29/11:00am 17.3 NNW 10 14 1012.6 - 0.0 - - - - - - -
29/10:30am 18.1 NNW 10 18 1012.8 - 0.0 - - - - - - -
29/10:00am 18.3 NNW 10 17 1012.7 - 0.0 - - - - - - -
29/09:30am 17.5 N 10 15 1012.7 - 0.0 - - - - - - -
29/09:00am 16.6 N 9 12 1012.6 - 2.0 - - - - - - -
29/08:30am 16.2 N 9 12 1012.8 - 2.0 - - - - - - -
29/08:00am 15.7 N 11 17 1012.9 - 2.0 - - - - - - -
29/07:30am 15.9 N 13 19 1013.6 - 1.8 - - - - - - -
29/07:00am 16.2 NW 8 12 1013.4 - 1.4 - - - - - - -
29/06:30am 18.1 W 15 26 1013.1 - 0.8 - - - - - - -
29/06:29am 18.3 W 15 26 1013.2 - 0.8 - - - - - - -
29/06:26am 19.0 W 13 19 1013.1 - 0.8 - - - - - - -
29/06:00am 19.9 N 12 20 1011.0 - 0.8 - - - - - - -
29/05:30am 18.6 N 13 23 1011.5 - 0.8 - - - - - - -
29/05:00am 16.3 NW 5 9 1012.5 - 0.8 - - - - - - -
29/04:30am 15.5 NE 9 11 1012.4 - 0.8 - - - - - - -
29/04:00am 15.6 NE 10 13 1013.4 - 0.8 - - - - - - -
29/03:30am 15.1 N 5 6 1013.4 - 0.6 - - - - - - -
29/03:00am 15.5 W 1 3 1014.2 - 0.6 - - - - - - -
29/02:30am 15.6 N 5 7 1014.7 - 0.6 - - - - - - -
29/02:00am 15.6 N 4 7 1014.5 - 0.4 - - - - - - -
29/01:30am 15.9 NW 8 12 1015.3 - 0.2 - - - - - - -
29/01:00am 15.6 ENE 8 10 1014.2 - 0.2 - - - - - - -
29/12:30am 15.9 ENE 7 9 1014.9 - 0.2 - - - - - - -
29/12:00am 15.9 ENE 7 10 1015.3 - 0.2 - - - - - - -
 
Date/Time
EST
Temp

°C
Wind Pressure Rain
since 9am
mm
Weather Cloud Vis
km
Sea
Height
m
Swell
Dir
 
Speed
knots
Gust
knots
hPa Trend Height
m
Period
s
Dir
28/11:30pm 15.8 ENE 5 8 1015.8 - 0.2 - - - - - - -
28/11:00pm 16.0 ENE 7 9 1016.2 - 0.2 - - - - - - -
28/10:30pm 16.0 E 6 9 1016.2 - 0.2 - - - - - - -
28/10:00pm 15.9 E 7 12 1016.3 - 0.2 - - - - - - -
28/09:30pm 15.8 ENE 10 12 1016.3 - 0.2 - - - - - - -
28/09:00pm 15.7 ENE 8 11 1016.4 - 0.2 - - - - - - -
28/08:30pm 15.9 E 8 11 1016.7 - 0.2 - - - - - - -
28/08:00pm 16.1 ENE 7 9 1017.1 - 0.2 - - - - - - -
28/07:30pm 15.9 E 6 10 1016.7 - 0.2 - - - - - - -
28/07:00pm 15.9 E 9 12 1016.0 - 0.2 - - - - - - -
28/06:30pm 15.8 ENE 7 10 1015.9 - 0.2 - - - - - - -
28/06:00pm 15.8 N 6 7 1017.0 - 0.0 - - - - - - -
28/05:30pm 16.1 N 5 6 1016.8 - 0.0 - - - - - - -
28/05:00pm 16.2 N 4 6 1017.0 - 0.0 - - - - - - -
28/04:30pm 16.4 WNW 6 9 1017.1 - 0.0 - - - - - - -
28/04:00pm 16.5 W 9 11 1017.0 - 0.0 - - - - - - -
28/03:30pm 16.9 W 7 9 1016.8 - 0.0 - - - - - - -
28/03:00pm 17.3 WNW 7 10 1016.6 - 0.0 - - - - - - -
28/02:30pm 17.2 W 6 9 1016.5 - 0.0 - - - - - - -
28/02:00pm 17.3 W 6 9 1016.5 - 0.0 - - - - - - -
28/01:30pm 17.1 W 7 10 1016.9 - 0.0 - - - - - - -
28/01:00pm 17.1 W 10 13 1017.1 - 0.0 - - - - - - -
28/12:30pm 17.0 W 9 12 1017.3 - 0.0 - - - - - - -
28/12:00pm 17.7 W 8 12 1017.5 - 0.0 - - - - - - -
28/11:30am 17.7 W 9 14 1017.6 - 0.0 - - - - - - -
28/11:00am 17.3 WNW 8 11 1017.6 - 0.0 - - - - - - -
28/10:30am 17.9 WNW 9 13 1017.8 - 0.0 - - - - - - -
28/10:00am 17.3 W 9 12 1017.4 - 0.0 - - - - - - -
28/09:30am 17.6 W 6 8 1017.1 - 0.0 - - - - - - -
28/09:00am 17.2 NW 5 5 1017.2 - 0.0 - - - - - - -
28/08:30am 16.7 NW 6 7 1017.1 - 0.0 - - - - - - -
28/08:00am 17.6 NW 6 9 1016.4 - 0.0 - - - - - - -
28/07:30am 17.4 NNW 7 9 1016.1 - 0.0 - - - - - - -
28/07:00am 17.6 NW 7 10 1015.8 - 0.0 - - - - - - -
28/06:30am 17.4 NW 7 10 1015.3 - 0.0 - - - - - - -
28/06:00am 17.6 NW 5 7 1014.8 - 0.0 - - - - - - -
28/05:30am 18.6 WSW 4 7 1014.5 - 0.0 - - - - - - -
28/05:00am 19.2 W 5 7 1013.9 - 0.0 - - - - - - -
28/04:30am 18.4 NNE 2 4 1013.5 - 0.0 - - - - - - -
28/04:00am 18.3 ESE 3 5 1013.9 - 0.0 - - - - - - -
28/03:30am 18.8 N 6 9 1013.7 - 0.0 - - - - - - -
28/03:00am 19.4 NW 6 9 1013.9 - 0.0 - - - - - - -
28/02:30am 16.9 N 7 8 1014.5 - 0.0 - - - - - - -
28/02:00am 16.6 NW 4 5 1014.4 - 0.0 - - - - - - -
28/01:30am 16.5 N 5 6 1014.2 - 0.0 - - - - - - -
28/01:00am 16.6 N 4 6 1014.2 - 0.0 - - - - - - -
28/12:30am 17.1 WNW 5 7 1014.3 - 0.0 - - - - - - -
28/12:00am 17.8 WNW 5 8 1014.2 - 0.0 - - - - - - -
 
Date/Time
EST
Temp

°C
Wind Pressure Rain
since 9am
mm
Weather Cloud Vis
km
Sea
Height
m
Swell
Dir
 
Speed
knots
Gust
knots
hPa Trend Height
m
Period
s
Dir
27/11:30pm 18.2 W 6 8 1014.4 - 0.0 - - - - - - -
27/11:00pm 18.9 W 6 9 1014.5 - 0.0 - - - - - - -
27/10:30pm 19.8 WSW 6 9 1014.3 - 0.0 - - - - - - -
27/10:00pm 23.5 W 7 19 1014.1 - 0.0 - - - - - - -
27/09:30pm 23.8 N 11 18 1013.8 - 0.0 - - - - - - -
27/09:00pm 24.3 N 13 21 1013.7 - 0.0 - - - - - - -
27/08:30pm 24.4 NNW 11 17 1013.9 - 0.0 - - - - - - -
27/08:00pm 24.3 N 10 15 1013.6 - 0.0 - - - - - - -
27/07:30pm 24.6 N 11 19 1013.4 - 0.0 - - - - - - -
27/07:00pm 24.7 N 10 14 1013.4 - 0.0 - - - - - - -
27/06:30pm 24.9 N 10 16 1013.1 - 0.0 - - - - - - -
27/06:00pm 24.9 N 11 17 1012.8 - 0.0 - - - - - - -
27/05:30pm 24.9 N 9 15 1012.8 - 0.0 - - - - - - -
27/05:00pm 25.2 N 11 17 1012.7 - 0.0 - - - - - - -
27/04:30pm 25.2 N 11 19 1012.6 - 0.0 - - - - - - -
27/04:00pm 25.0 N 12 17 1012.5 - 0.0 - - - - - - -
27/03:30pm 24.7 N 15 25 1012.4 - 0.0 - - - - - - -
27/03:00pm 24.4 N 15 25 1012.2 - 0.0 - - - - - - -
27/02:33pm 24.4 N 18 28 1012.2 - 0.0 - - - - - - -
27/02:30pm 24.4 N 18 27 1012.2 - 0.0 - - - - - - -
27/02:00pm 24.0 N 19 34 1012.3 - 0.0 - - - - - - -
27/01:30pm 24.3 N 19 30 1012.6 - 0.0 - - - - - - -
27/01:00pm 24.1 N 18 31 1012.8 - 0.0 - - - - - - -
27/12:30pm 23.9 N 17 28 1013.5 - 0.0 - - - - - - -
27/12:00pm 24.6 N 19 31 1013.7 - 0.0 - - - - - - -
27/11:30am 23.6 N 20 33 1013.9 - 0.0 - - - - - - -
27/11:00am 22.4 N 19 31 1014.5 - 0.0 - - - - - - -
27/10:30am 22.3 N 19 32 1014.8 - 0.0 - - - - - - -
27/10:00am 22.3 N 16 28 1015.2 - 0.0 - - - - - - -
27/09:43am 22.3 N 16 29 1016.0 - 0.0 - - - - - - -
27/09:30am 22.1 N 13 20 1016.1 - 0.0 - - - - - - -
27/09:15am 21.8 N 15 25 1016.7 - 0.0 - - - - - - -
27/09:00am 21.3 N 12 21 1016.9 - 0.0 - - - - - - -
27/08:30am 20.5 N 12 20 1017.2 - 0.0 - - - - - - -
27/08:00am 20.3 N 14 22 1017.2 - 0.0 - - - - - - -

Other Formats:

Comma delimited format used in spreadsheet applications
http://www.bom.gov.au/fwo/IDT60701/IDT60701.94842.axf

JavaScript Object Notation format (JSON) in row-major order
http://www.bom.gov.au/fwo/IDT60701/IDT60701.94842.json